Lethbridge,

8:58 PM MDT on August 21, 2017 (GMT -0600)
Lethbridge | | Change Station

Elev 3048 ft 49.63 °N, 112.79 °W | Updated 58 minutes ago

Mostly Cloudy
Mostly Cloudy
70 °F
Feels Like 70 °F
N
8
Wind Variable Wind from East

Today
High -- | Low -- °F
--% Chance of Precip.
Yesterday
High -- | Low -- °F
Precip. -- in
Pressure 30.10 in
Visibility 15.0 miles
Clouds Few 19000 ft
Mostly Cloudy 27000 ft
Dew Point 41 °F
Humidity 35%
Rainfall 0.00 in
Snow Depth Not available.
6:31 AM 8:36 PM
New Moon, 0% visible
METAR CYQL 220200Z 08007KT 15SM FEW190 BKN270 21/05 A3010 RMK AC1CS6 SLP193 DENSITY ALT 4300FT
Pressure 30.10 in
Visibility 15.0 miles
Clouds Few 19000 ft
Mostly Cloudy 27000 ft
Dew Point 41 °F
Humidity 35%
Rainfall 0.00 in
Snow Depth Not available.
6:31 AM 8:36 PM
New Moon, 0% visible
METAR CYQL 220200Z 08007KT 15SM FEW190 BKN270 21/05 A3010 RMK AC1CS6 SLP193 DENSITY ALT 4300FT

Get Severe Weather Alerts

Thanks for signing up!

Be on the lookout for a verification email in your inbox.

You'll start receiving the daily forecast at 6 AM.

×

10-Day Weather Forecast

No radar image for this location.
×

Almanac

Astronomy

Aug. 21, 2017 Rise Set
Actual Time
Civil Twilight
Nautical Twilight
Astronomical Twilight
Moon
Length of Visible Light
Length of Day
Tomorrow will be .
, % of the Moon is Illuminated

Today's Extremes

Country Highs Country Lows

Community

WunderPhotos

Category 6

Welcome to Category 6. This is the collective home for Weather Underground's featured writeups by Dr. Jeff Masters (right), Bob Henson (left), Chris Burt, and other regular contributors.

Nearby

Air Quality

  Air Quality AQ Index Pollutant
Not available.

Snow Depth

Station Depth Elevation

Earthquake Activity

City Distance Mag. Time & Date
Minimum magnitude displayed is 2.5.

Coastal Water Temperatures

Place Temperature

Stations

Nearby Weather Stations

Station Location Temp. Windchill Dew Point Humidity Wind Precip. Elev Updated Type
                   

Watches & Warnings

There are currently no watches in effect.